sensor_id;sensor_type;location;lat;lon;timestamp;temperature;humidity
14099;DHT22;7126;48.458;7.930;2023-05-14T00:01:06;12.90;99.90
14099;DHT22;7126;48.458;7.930;2023-05-14T00:03:32;12.90;99.90
14099;DHT22;7126;48.458;7.930;2023-05-14T00:05:58;12.90;99.90
14099;DHT22;7126;48.458;7.930;2023-05-14T00:08:24;12.90;99.90
14099;DHT22;7126;48.458;7.930;2023-05-14T00:10:49;12.90;99.90
14099;DHT22;7126;48.458;7.930;2023-05-14T00:13:15;12.90;99.90
14099;DHT22;7126;48.458;7.930;2023-05-14T00:15:40;12.90;99.90
14099;DHT22;7126;48.458;7.930;2023-05-14T00:18:06;12.90;99.90
14099;DHT22;7126;48.458;7.930;2023-05-14T00:20:31;12.90;99.90
14099;DHT22;7126;48.458;7.930;2023-05-14T00:22:57;12.90;99.90
14099;DHT22;7126;48.458;7.930;2023-05-14T00:25:22;13.10;99.90
14099;DHT22;7126;48.458;7.930;2023-05-14T00:27:48;13.10;99.90
14099;DHT22;7126;48.458;7.930;2023-05-14T00:30:13;13.00;99.90
14099;DHT22;7126;48.458;7.930;2023-05-14T00:32:39;13.00;99.90
14099;DHT22;7126;48.458;7.930;2023-05-14T00:35:05;12.90;99.90
14099;DHT22;7126;48.458;7.930;2023-05-14T00:37:31;12.80;99.90
14099;DHT22;7126;48.458;7.930;2023-05-14T00:39:56;12.80;99.90
14099;DHT22;7126;48.458;7.930;2023-05-14T00:42:22;12.80;99.90
14099;DHT22;7126;48.458;7.930;2023-05-14T00:44:48;12.70;99.90
14099;DHT22;7126;48.458;7.930;2023-05-14T00:47:13;12.70;99.90
14099;DHT22;7126;48.458;7.930;2023-05-14T00:49:40;12.50;99.90
14099;DHT22;7126;48.458;7.930;2023-05-14T00:52:06;12.50;99.90
14099;DHT22;7126;48.458;7.930;2023-05-14T00:54:33;12.50;99.90
14099;DHT22;7126;48.458;7.930;2023-05-14T00:56:59;12.40;99.90
14099;DHT22;7126;48.458;7.930;2023-05-14T00:59:25;12.40;99.90
14099;DHT22;7126;48.458;7.930;2023-05-14T01:01:50;12.40;99.90
14099;DHT22;7126;48.458;7.930;2023-05-14T01:04:17;12.30;99.90
14099;DHT22;7126;48.458;7.930;2023-05-14T01:09:43;12.40;99.90
14099;DHT22;7126;48.458;7.930;2023-05-14T01:12:37;12.40;99.90
14099;DHT22;7126;48.458;7.930;2023-05-14T01:15:11;12.40;99.90
14099;DHT22;7126;48.458;7.930;2023-05-14T01:17:45;12.40;99.90
14099;DHT22;7126;48.458;7.930;2023-05-14T01:20:11;12.50;99.90
14099;DHT22;7126;48.458;7.930;2023-05-14T01:22:37;12.50;99.90
14099;DHT22;7126;48.458;7.930;2023-05-14T01:25:04;12.50;99.90
14099;DHT22;7126;48.458;7.930;2023-05-14T01:30:30;12.50;99.90
14099;DHT22;7126;48.458;7.930;2023-05-14T01:32:58;12.50;99.90
14099;DHT22;7126;48.458;7.930;2023-05-14T01:35:28;12.50;99.90
14099;DHT22;7126;48.458;7.930;2023-05-14T01:37:56;12.60;99.90
14099;DHT22;7126;48.458;7.930;2023-05-14T01:40:23;12.60;99.90
14099;DHT22;7126;48.458;7.930;2023-05-14T01:42:50;12.70;99.90
14099;DHT22;7126;48.458;7.930;2023-05-14T01:45:19;12.70;99.90
14099;DHT22;7126;48.458;7.930;2023-05-14T01:47:44;12.70;99.90
14099;DHT22;7126;48.458;7.930;2023-05-14T01:50:10;12.80;99.90
14099;DHT22;7126;48.458;7.930;2023-05-14T01:52:36;12.80;99.90
14099;DHT22;7126;48.458;7.930;2023-05-14T01:55:01;12.80;99.90
14099;DHT22;7126;48.458;7.930;2023-05-14T01:57:28;12.80;99.90
14099;DHT22;7126;48.458;7.930;2023-05-14T01:59:53;12.80;99.90
14099;DHT22;7126;48.458;7.930;2023-05-14T02:02:19;12.80;99.90
14099;DHT22;7126;48.458;7.930;2023-05-14T02:04:44;12.80;99.90
14099;DHT22;7126;48.458;7.930;2023-05-14T02:07:10;12.80;99.90
14099;DHT22;7126;48.458;7.930;2023-05-14T02:09:36;12.70;99.90
14099;DHT22;7126;48.458;7.930;2023-05-14T02:12:02;12.60;99.90
14099;DHT22;7126;48.458;7.930;2023-05-14T02:14:27;12.70;99.90
14099;DHT22;7126;48.458;7.930;2023-05-14T02:16:53;12.70;99.90
14099;DHT22;7126;48.458;7.930;2023-05-14T02:19:18;12.80;99.90
14099;DHT22;7126;48.458;7.930;2023-05-14T02:21:44;12.80;99.90
14099;DHT22;7126;48.458;7.930;2023-05-14T02:24:09;12.70;99.90
14099;DHT22;7126;48.458;7.930;2023-05-14T02:26:35;12.70;99.90
14099;DHT22;7126;48.458;7.930;2023-05-14T02:29:00;12.70;99.90
14099;DHT22;7126;48.458;7.930;2023-05-14T02:31:26;12.70;99.90
14099;DHT22;7126;48.458;7.930;2023-05-14T02:33:51;12.90;99.90
14099;DHT22;7126;48.458;7.930;2023-05-14T02:36:17;12.90;99.90
14099;DHT22;7126;48.458;7.930;2023-05-14T02:38:42;13.00;99.90
14099;DHT22;7126;48.458;7.930;2023-05-14T02:41:08;13.00;99.90
14099;DHT22;7126;48.458;7.930;2023-05-14T02:43:34;13.10;99.90
14099;DHT22;7126;48.458;7.930;2023-05-14T02:45:59;13.10;99.90
14099;DHT22;7126;48.458;7.930;2023-05-14T02:48:25;13.10;99.90
14099;DHT22;7126;48.458;7.930;2023-05-14T02:50:50;13.10;99.90
14099;DHT22;7126;48.458;7.930;2023-05-14T02:53:16;13.10;99.90
14099;DHT22;7126;48.458;7.930;2023-05-14T02:55:42;13.10;99.90
14099;DHT22;7126;48.458;7.930;2023-05-14T02:58:07;13.00;99.90
14099;DHT22;7126;48.458;7.930;2023-05-14T03:00:33;12.90;99.90
14099;DHT22;7126;48.458;7.930;2023-05-14T03:02:58;12.80;99.90
14099;DHT22;7126;48.458;7.930;2023-05-14T03:05:24;12.80;99.90
14099;DHT22;7126;48.458;7.930;2023-05-14T03:07:53;12.80;99.90
14099;DHT22;7126;48.458;7.930;2023-05-14T03:10:19;12.80;99.90
14099;DHT22;7126;48.458;7.930;2023-05-14T03:12:44;12.70;99.90
14099;DHT22;7126;48.458;7.930;2023-05-14T03:15:10;12.70;99.90
14099;DHT22;7126;48.458;7.930;2023-05-14T03:17:36;12.70;99.90
14099;DHT22;7126;48.458;7.930;2023-05-14T03:20:02;12.60;99.90
14099;DHT22;7126;48.458;7.930;2023-05-14T03:22:27;12.50;99.90
14099;DHT22;7126;48.458;7.930;2023-05-14T03:24:53;12.50;99.90
14099;DHT22;7126;48.458;7.930;2023-05-14T03:27:19;12.50;99.90
14099;DHT22;7126;48.458;7.930;2023-05-14T03:29:45;12.50;99.90
14099;DHT22;7126;48.458;7.930;2023-05-14T03:32:10;12.50;99.90
14099;DHT22;7126;48.458;7.930;2023-05-14T03:34:36;12.50;99.90
14099;DHT22;7126;48.458;7.930;2023-05-14T03:37:01;12.40;99.90
14099;DHT22;7126;48.458;7.930;2023-05-14T03:39:27;12.40;99.90
14099;DHT22;7126;48.458;7.930;2023-05-14T03:41:53;12.40;99.90
14099;DHT22;7126;48.458;7.930;2023-05-14T03:44:18;12.40;99.90
14099;DHT22;7126;48.458;7.930;2023-05-14T03:46:44;12.40;99.90
14099;DHT22;7126;48.458;7.930;2023-05-14T03:49:09;12.50;99.90
14099;DHT22;7126;48.458;7.930;2023-05-14T03:51:35;12.40;99.90
14099;DHT22;7126;48.458;7.930;2023-05-14T03:54:02;12.40;99.90
14099;DHT22;7126;48.458;7.930;2023-05-14T03:56:28;12.40;99.90
14099;DHT22;7126;48.458;7.930;2023-05-14T03:58:54;12.40;99.90
14099;DHT22;7126;48.458;7.930;2023-05-14T04:01:19;12.40;99.90
14099;DHT22;7126;48.458;7.930;2023-05-14T04:03:45;12.40;99.90
14099;DHT22;7126;48.458;7.930;2023-05-14T04:06:10;12.50;99.90
14099;DHT22;7126;48.458;7.930;2023-05-14T04:08:36;12.50;99.90
14099;DHT22;7126;48.458;7.930;2023-05-14T04:11:01;12.50;99.90
14099;DHT22;7126;48.458;7.930;2023-05-14T04:13:27;12.50;99.90
14099;DHT22;7126;48.458;7.930;2023-05-14T04:15:52;12.40;99.90
14099;DHT22;7126;48.458;7.930;2023-05-14T04:18:18;12.40;99.90
14099;DHT22;7126;48.458;7.930;2023-05-14T04:20:43;12.40;99.90
14099;DHT22;7126;48.458;7.930;2023-05-14T04:23:09;12.40;99.90
14099;DHT22;7126;48.458;7.930;2023-05-14T04:25:35;12.40;99.90
14099;DHT22;7126;48.458;7.930;2023-05-14T04:28:00;12.40;99.90
14099;DHT22;7126;48.458;7.930;2023-05-14T04:30:26;12.40;99.90
14099;DHT22;7126;48.458;7.930;2023-05-14T04:32:51;12.40;99.90
14099;DHT22;7126;48.458;7.930;2023-05-14T04:35:17;12.40;99.90
14099;DHT22;7126;48.458;7.930;2023-05-14T04:37:44;12.50;99.90
14099;DHT22;7126;48.458;7.930;2023-05-14T04:40:10;12.50;99.90
14099;DHT22;7126;48.458;7.930;2023-05-14T04:42:36;12.50;99.90
14099;DHT22;7126;48.458;7.930;2023-05-14T04:45:02;12.50;99.90
14099;DHT22;7126;48.458;7.930;2023-05-14T04:47:29;12.50;99.90
14099;DHT22;7126;48.458;7.930;2023-05-14T04:49:55;12.50;99.90
14099;DHT22;7126;48.458;7.930;2023-05-14T04:52:22;12.50;99.90
14099;DHT22;7126;48.458;7.930;2023-05-14T04:54:48;12.40;99.90
14099;DHT22;7126;48.458;7.930;2023-05-14T04:57:13;12.50;99.90
14099;DHT22;7126;48.458;7.930;2023-05-14T04:59:39;12.60;99.90
14099;DHT22;7126;48.458;7.930;2023-05-14T05:02:04;12.60;99.90
14099;DHT22;7126;48.458;7.930;2023-05-14T05:04:30;12.70;99.90
14099;DHT22;7126;48.458;7.930;2023-05-14T05:06:56;12.80;99.90
14099;DHT22;7126;48.458;7.930;2023-05-14T05:09:21;12.80;99.90
14099;DHT22;7126;48.458;7.930;2023-05-14T05:11:47;12.80;99.90
14099;DHT22;7126;48.458;7.930;2023-05-14T05:14:12;12.90;99.90
14099;DHT22;7126;48.458;7.930;2023-05-14T05:16:38;13.00;99.90
14099;DHT22;7126;48.458;7.930;2023-05-14T05:19:03;13.10;99.90
14099;DHT22;7126;48.458;7.930;2023-05-14T05:21:29;13.20;99.90
14099;DHT22;7126;48.458;7.930;2023-05-14T05:23:55;13.30;99.90
14099;DHT22;7126;48.458;7.930;2023-05-14T05:26:20;13.30;99.90
14099;DHT22;7126;48.458;7.930;2023-05-14T05:28:50;13.40;99.90
14099;DHT22;7126;48.458;7.930;2023-05-14T05:31:16;13.40;99.90
14099;DHT22;7126;48.458;7.930;2023-05-14T05:33:41;13.50;99.90
14099;DHT22;7126;48.458;7.930;2023-05-14T05:36:07;13.50;99.90
14099;DHT22;7126;48.458;7.930;2023-05-14T05:38:33;13.60;99.90
14099;DHT22;7126;48.458;7.930;2023-05-14T05:40:58;13.60;99.90
14099;DHT22;7126;48.458;7.930;2023-05-14T05:43:24;13.60;99.90
14099;DHT22;7126;48.458;7.930;2023-05-14T05:45:49;13.60;99.90
14099;DHT22;7126;48.458;7.930;2023-05-14T05:48:15;13.60;99.90
14099;DHT22;7126;48.458;7.930;2023-05-14T05:50:41;13.70;99.90
14099;DHT22;7126;48.458;7.930;2023-05-14T05:53:09;13.70;99.90
14099;DHT22;7126;48.458;7.930;2023-05-14T05:55:34;13.80;99.90
14099;DHT22;7126;48.458;7.930;2023-05-14T05:58:00;13.90;99.90
14099;DHT22;7126;48.458;7.930;2023-05-14T06:00:26;13.90;99.90
14099;DHT22;7126;48.458;7.930;2023-05-14T06:02:51;13.90;99.90
14099;DHT22;7126;48.458;7.930;2023-05-14T06:05:17;14.00;99.90
14099;DHT22;7126;48.458;7.930;2023-05-14T06:07:43;14.00;99.90
14099;DHT22;7126;48.458;7.930;2023-05-14T06:10:09;14.00;99.90
14099;DHT22;7126;48.458;7.930;2023-05-14T06:12:35;14.10;99.90
14099;DHT22;7126;48.458;7.930;2023-05-14T06:15:00;14.10;99.90
14099;DHT22;7126;48.458;7.930;2023-05-14T06:17:26;14.20;99.90
14099;DHT22;7126;48.458;7.930;2023-05-14T06:19:52;14.20;99.90
14099;DHT22;7126;48.458;7.930;2023-05-14T06:22:18;14.20;99.90
14099;DHT22;7126;48.458;7.930;2023-05-14T06:24:43;14.30;99.90
14099;DHT22;7126;48.458;7.930;2023-05-14T06:27:10;14.30;99.90
14099;DHT22;7126;48.458;7.930;2023-05-14T06:29:36;14.40;99.90
14099;DHT22;7126;48.458;7.930;2023-05-14T06:32:02;14.40;99.90
14099;DHT22;7126;48.458;7.930;2023-05-14T06:34:29;14.50;99.90
14099;DHT22;7126;48.458;7.930;2023-05-14T06:36:55;14.50;99.90
14099;DHT22;7126;48.458;7.930;2023-05-14T06:39:21;14.50;99.90
14099;DHT22;7126;48.458;7.930;2023-05-14T06:41:47;14.50;99.90
14099;DHT22;7126;48.458;7.930;2023-05-14T06:44:12;14.60;99.90
14099;DHT22;7126;48.458;7.930;2023-05-14T06:46:38;14.60;99.90
14099;DHT22;7126;48.458;7.930;2023-05-14T06:49:04;14.60;99.90
14099;DHT22;7126;48.458;7.930;2023-05-14T06:51:29;14.60;99.90
14099;DHT22;7126;48.458;7.930;2023-05-14T06:53:55;14.70;99.90
14099;DHT22;7126;48.458;7.930;2023-05-14T06:56:21;14.80;99.90
14099;DHT22;7126;48.458;7.930;2023-05-14T06:58:47;14.90;99.90
14099;DHT22;7126;48.458;7.930;2023-05-14T07:01:12;15.00;99.90
14099;DHT22;7126;48.458;7.930;2023-05-14T07:03:38;15.10;99.90
14099;DHT22;7126;48.458;7.930;2023-05-14T07:06:03;15.20;99.90
14099;DHT22;7126;48.458;7.930;2023-05-14T07:08:29;15.20;99.90
14099;DHT22;7126;48.458;7.930;2023-05-14T07:10:54;15.20;99.90
14099;DHT22;7126;48.458;7.930;2023-05-14T07:13:21;15.20;99.90
14099;DHT22;7126;48.458;7.930;2023-05-14T07:15:47;15.20;99.90
14099;DHT22;7126;48.458;7.930;2023-05-14T07:18:13;15.20;99.90
14099;DHT22;7126;48.458;7.930;2023-05-14T07:20:38;15.20;99.90
14099;DHT22;7126;48.458;7.930;2023-05-14T07:23:04;15.30;99.90
14099;DHT22;7126;48.458;7.930;2023-05-14T07:25:29;15.40;99.90
14099;DHT22;7126;48.458;7.930;2023-05-14T07:27:55;15.50;99.90
14099;DHT22;7126;48.458;7.930;2023-05-14T07:30:20;15.60;99.90
14099;DHT22;7126;48.458;7.930;2023-05-14T07:32:46;15.60;99.90
14099;DHT22;7126;48.458;7.930;2023-05-14T07:35:11;15.70;99.90
14099;DHT22;7126;48.458;7.930;2023-05-14T07:37:37;15.80;99.90
14099;DHT22;7126;48.458;7.930;2023-05-14T07:40:03;15.90;99.90
14099;DHT22;7126;48.458;7.930;2023-05-14T07:42:29;16.10;99.90
14099;DHT22;7126;48.458;7.930;2023-05-14T07:44:54;16.10;99.90
14099;DHT22;7126;48.458;7.930;2023-05-14T07:47:20;16.10;99.90
14099;DHT22;7126;48.458;7.930;2023-05-14T07:49:46;16.00;99.90
14099;DHT22;7126;48.458;7.930;2023-05-14T07:52:11;16.00;99.90
14099;DHT22;7126;48.458;7.930;2023-05-14T07:54:37;16.00;99.90
14099;DHT22;7126;48.458;7.930;2023-05-14T07:57:03;16.00;99.90
14099;DHT22;7126;48.458;7.930;2023-05-14T07:59:28;16.10;99.90
14099;DHT22;7126;48.458;7.930;2023-05-14T08:01:54;16.30;99.90
14099;DHT22;7126;48.458;7.930;2023-05-14T08:04:19;16.50;99.90
14099;DHT22;7126;48.458;7.930;2023-05-14T08:06:48;16.70;99.90
14099;DHT22;7126;48.458;7.930;2023-05-14T08:09:13;16.80;99.90
14099;DHT22;7126;48.458;7.930;2023-05-14T08:11:39;16.80;99.90
14099;DHT22;7126;48.458;7.930;2023-05-14T08:14:05;16.90;99.90
14099;DHT22;7126;48.458;7.930;2023-05-14T08:16:30;17.00;99.90
14099;DHT22;7126;48.458;7.930;2023-05-14T08:18:56;17.10;99.90
14099;DHT22;7126;48.458;7.930;2023-05-14T08:21:21;17.20;99.90
14099;DHT22;7126;48.458;7.930;2023-05-14T08:23:47;17.30;99.90
14099;DHT22;7126;48.458;7.930;2023-05-14T08:26:12;17.40;99.90
14099;DHT22;7126;48.458;7.930;2023-05-14T08:28:38;17.50;99.90
14099;DHT22;7126;48.458;7.930;2023-05-14T08:31:03;17.60;99.90
14099;DHT22;7126;48.458;7.930;2023-05-14T08:33:29;17.70;99.90
14099;DHT22;7126;48.458;7.930;2023-05-14T08:35:55;17.70;99.90
14099;DHT22;7126;48.458;7.930;2023-05-14T08:38:22;17.70;99.90
14099;DHT22;7126;48.458;7.930;2023-05-14T08:40:55;17.70;99.90
14099;DHT22;7126;48.458;7.930;2023-05-14T08:43:25;17.60;99.90
14099;DHT22;7126;48.458;7.930;2023-05-14T08:45:53;17.60;99.90
14099;DHT22;7126;48.458;7.930;2023-05-14T08:48:22;17.60;99.90
14099;DHT22;7126;48.458;7.930;2023-05-14T08:50:47;17.60;99.90
14099;DHT22;7126;48.458;7.930;2023-05-14T08:53:13;17.70;99.90
14099;DHT22;7126;48.458;7.930;2023-05-14T08:55:39;18.00;99.90
14099;DHT22;7126;48.458;7.930;2023-05-14T08:58:04;18.30;99.90
14099;DHT22;7126;48.458;7.930;2023-05-14T09:00:30;18.40;99.90
14099;DHT22;7126;48.458;7.930;2023-05-14T09:02:56;18.40;99.90
14099;DHT22;7126;48.458;7.930;2023-05-14T09:05:22;18.50;99.90
14099;DHT22;7126;48.458;7.930;2023-05-14T09:07:49;18.70;99.90
14099;DHT22;7126;48.458;7.930;2023-05-14T09:10:15;19.00;99.90
14099;DHT22;7126;48.458;7.930;2023-05-14T09:12:41;19.20;99.90
14099;DHT22;7126;48.458;7.930;2023-05-14T09:15:07;19.50;99.90
14099;DHT22;7126;48.458;7.930;2023-05-14T09:17:33;19.70;99.90
14099;DHT22;7126;48.458;7.930;2023-05-14T09:19:59;20.00;99.90
14099;DHT22;7126;48.458;7.930;2023-05-14T09:22:27;20.10;99.90
14099;DHT22;7126;48.458;7.930;2023-05-14T09:25:04;20.10;99.90
14099;DHT22;7126;48.458;7.930;2023-05-14T09:27:31;19.80;99.90
14099;DHT22;7126;48.458;7.930;2023-05-14T09:30:17;19.60;99.90
14099;DHT22;7126;48.458;7.930;2023-05-14T09:32:43;19.40;99.90
14099;DHT22;7126;48.458;7.930;2023-05-14T09:37:36;19.10;99.90
14099;DHT22;7126;48.458;7.930;2023-05-14T09:40:06;19.00;99.90
14099;DHT22;7126;48.458;7.930;2023-05-14T09:42:33;19.00;99.90
14099;DHT22;7126;48.458;7.930;2023-05-14T09:44:58;19.10;99.90
14099;DHT22;7126;48.458;7.930;2023-05-14T09:47:24;19.10;99.90
14099;DHT22;7126;48.458;7.930;2023-05-14T09:49:50;19.10;99.90
14099;DHT22;7126;48.458;7.930;2023-05-14T09:52:18;19.10;99.90
14099;DHT22;7126;48.458;7.930;2023-05-14T09:54:45;19.20;99.90
14099;DHT22;7126;48.458;7.930;2023-05-14T09:57:11;19.60;99.90
14099;DHT22;7126;48.458;7.930;2023-05-14T09:59:36;19.80;99.90
14099;DHT22;7126;48.458;7.930;2023-05-14T10:02:04;19.90;99.90
14099;DHT22;7126;48.458;7.930;2023-05-14T10:04:31;19.80;99.90
14099;DHT22;7126;48.458;7.930;2023-05-14T10:06:58;19.60;99.90
14099;DHT22;7126;48.458;7.930;2023-05-14T10:09:26;19.50;99.90
14099;DHT22;7126;48.458;7.930;2023-05-14T10:11:58;19.30;99.90
14099;DHT22;7126;48.458;7.930;2023-05-14T10:14:32;19.20;99.90
14099;DHT22;7126;48.458;7.930;2023-05-14T10:17:00;19.10;99.90
14099;DHT22;7126;48.458;7.930;2023-05-14T10:19:29;19.00;99.90
14099;DHT22;7126;48.458;7.930;2023-05-14T10:22:04;19.00;99.90
14099;DHT22;7126;48.458;7.930;2023-05-14T10:24:31;19.10;99.90
14099;DHT22;7126;48.458;7.930;2023-05-14T10:26:57;19.50;99.90
14099;DHT22;7126;48.458;7.930;2023-05-14T10:29:36;19.80;99.90
14099;DHT22;7126;48.458;7.930;2023-05-14T10:32:06;19.80;99.90
14099;DHT22;7126;48.458;7.930;2023-05-14T10:34:40;19.70;99.90
14099;DHT22;7126;48.458;7.930;2023-05-14T10:39:43;19.90;99.90
14099;DHT22;7126;48.458;7.930;2023-05-14T10:42:23;19.90;99.90
14099;DHT22;7126;48.458;7.930;2023-05-14T10:44:55;19.80;99.90
14099;DHT22;7126;48.458;7.930;2023-05-14T10:47:33;19.80;99.90
14099;DHT22;7126;48.458;7.930;2023-05-14T10:50:02;19.90;99.90
14099;DHT22;7126;48.458;7.930;2023-05-14T10:52:29;20.00;99.90
14099;DHT22;7126;48.458;7.930;2023-05-14T10:54:56;20.10;99.90
14099;DHT22;7126;48.458;7.930;2023-05-14T10:57:23;19.90;99.90
14099;DHT22;7126;48.458;7.930;2023-05-14T10:59:54;19.80;99.90
14099;DHT22;7126;48.458;7.930;2023-05-14T11:07:23;20.10;99.90
14099;DHT22;7126;48.458;7.930;2023-05-14T11:09:50;20.70;99.90
14099;DHT22;7126;48.458;7.930;2023-05-14T11:12:17;21.20;99.90
14099;DHT22;7126;48.458;7.930;2023-05-14T11:14:43;21.30;99.90
14099;DHT22;7126;48.458;7.930;2023-05-14T11:17:08;21.40;99.90
14099;DHT22;7126;48.458;7.930;2023-05-14T11:19:34;21.40;99.90
14099;DHT22;7126;48.458;7.930;2023-05-14T11:22:00;21.30;99.90
14099;DHT22;7126;48.458;7.930;2023-05-14T11:24:26;21.50;99.90
14099;DHT22;7126;48.458;7.930;2023-05-14T11:26:52;22.00;99.90
14099;DHT22;7126;48.458;7.930;2023-05-14T11:29:20;22.30;99.90
14099;DHT22;7126;48.458;7.930;2023-05-14T11:31:45;22.50;99.90
14099;DHT22;7126;48.458;7.930;2023-05-14T11:34:11;22.20;99.90
14099;DHT22;7126;48.458;7.930;2023-05-14T11:36:37;21.90;99.90
14099;DHT22;7126;48.458;7.930;2023-05-14T11:39:02;21.80;99.90
14099;DHT22;7126;48.458;7.930;2023-05-14T11:41:28;22.00;99.90
14099;DHT22;7126;48.458;7.930;2023-05-14T11:43:55;22.40;99.90
14099;DHT22;7126;48.458;7.930;2023-05-14T11:46:22;22.30;99.90
14099;DHT22;7126;48.458;7.930;2023-05-14T11:48:48;22.20;99.90
14099;DHT22;7126;48.458;7.930;2023-05-14T11:51:14;22.00;99.90
14099;DHT22;7126;48.458;7.930;2023-05-14T11:53:39;21.80;99.90
14099;DHT22;7126;48.458;7.930;2023-05-14T11:56:05;21.80;99.90
14099;DHT22;7126;48.458;7.930;2023-05-14T11:58:31;21.90;99.90
14099;DHT22;7126;48.458;7.930;2023-05-14T12:00:58;22.10;99.90
14099;DHT22;7126;48.458;7.930;2023-05-14T12:03:24;22.10;99.90
14099;DHT22;7126;48.458;7.930;2023-05-14T12:05:58;22.10;99.90
14099;DHT22;7126;48.458;7.930;2023-05-14T12:08:28;22.10;99.90
14099;DHT22;7126;48.458;7.930;2023-05-14T12:10:54;21.90;99.90
14099;DHT22;7126;48.458;7.930;2023-05-14T12:13:21;21.80;99.90
14099;DHT22;7126;48.458;7.930;2023-05-14T12:15:53;21.70;99.90
14099;DHT22;7126;48.458;7.930;2023-05-14T12:18:19;21.70;99.90
14099;DHT22;7126;48.458;7.930;2023-05-14T12:20:48;21.90;99.90
14099;DHT22;7126;48.458;7.930;2023-05-14T12:23:14;22.40;99.90
14099;DHT22;7126;48.458;7.930;2023-05-14T12:25:48;22.80;99.90
14099;DHT22;7126;48.458;7.930;2023-05-14T12:28:15;23.20;99.90
14099;DHT22;7126;48.458;7.930;2023-05-14T12:30:41;23.50;99.90
14099;DHT22;7126;48.458;7.930;2023-05-14T12:33:06;23.60;99.90
14099;DHT22;7126;48.458;7.930;2023-05-14T12:35:32;23.50;99.90
14099;DHT22;7126;48.458;7.930;2023-05-14T12:37:57;23.30;99.90
14099;DHT22;7126;48.458;7.930;2023-05-14T12:40:23;23.30;99.90
14099;DHT22;7126;48.458;7.930;2023-05-14T12:42:48;23.60;99.90
14099;DHT22;7126;48.458;7.930;2023-05-14T12:45:14;23.80;99.90
14099;DHT22;7126;48.458;7.930;2023-05-14T12:47:39;23.90;99.90
14099;DHT22;7126;48.458;7.930;2023-05-14T12:50:05;24.10;99.90
14099;DHT22;7126;48.458;7.930;2023-05-14T12:52:31;24.30;99.90
14099;DHT22;7126;48.458;7.930;2023-05-14T12:54:57;24.40;99.90
14099;DHT22;7126;48.458;7.930;2023-05-14T12:57:22;24.40;99.90
14099;DHT22;7126;48.458;7.930;2023-05-14T12:59:48;24.10;99.90
14099;DHT22;7126;48.458;7.930;2023-05-14T13:02:13;23.80;99.90
14099;DHT22;7126;48.458;7.930;2023-05-14T13:04:39;23.60;99.90
14099;DHT22;7126;48.458;7.930;2023-05-14T13:07:05;23.70;99.90
14099;DHT22;7126;48.458;7.930;2023-05-14T13:09:33;23.80;99.90
14099;DHT22;7126;48.458;7.930;2023-05-14T13:11:58;23.90;99.90
14099;DHT22;7126;48.458;7.930;2023-05-14T13:14:24;24.20;99.90
14099;DHT22;7126;48.458;7.930;2023-05-14T13:16:50;24.40;99.90
14099;DHT22;7126;48.458;7.930;2023-05-14T13:19:15;24.60;99.90
14099;DHT22;7126;48.458;7.930;2023-05-14T13:21:41;24.60;99.90
14099;DHT22;7126;48.458;7.930;2023-05-14T13:24:07;24.60;99.90
14099;DHT22;7126;48.458;7.930;2023-05-14T13:26:35;24.30;99.90
14099;DHT22;7126;48.458;7.930;2023-05-14T13:29:01;23.90;99.90
14099;DHT22;7126;48.458;7.930;2023-05-14T13:31:26;23.40;99.90
14099;DHT22;7126;48.458;7.930;2023-05-14T13:33:52;23.40;99.90
14099;DHT22;7126;48.458;7.930;2023-05-14T13:36:17;23.60;99.90
14099;DHT22;7126;48.458;7.930;2023-05-14T13:38:43;23.70;99.90
14099;DHT22;7126;48.458;7.930;2023-05-14T13:41:12;23.90;99.90
14099;DHT22;7126;48.458;7.930;2023-05-14T13:43:38;23.80;99.90
14099;DHT22;7126;48.458;7.930;2023-05-14T13:46:04;23.70;99.90
14099;DHT22;7126;48.458;7.930;2023-05-14T13:48:31;23.40;99.90
14099;DHT22;7126;48.458;7.930;2023-05-14T13:50:57;23.10;99.90
14099;DHT22;7126;48.458;7.930;2023-05-14T13:53:24;23.00;99.90
14099;DHT22;7126;48.458;7.930;2023-05-14T13:55:50;22.80;99.90
14099;DHT22;7126;48.458;7.930;2023-05-14T13:58:21;22.50;99.90
14099;DHT22;7126;48.458;7.930;2023-05-14T14:00:47;22.20;99.90
14099;DHT22;7126;48.458;7.930;2023-05-14T14:03:13;22.20;99.90
14099;DHT22;7126;48.458;7.930;2023-05-14T14:05:38;22.50;99.90
14099;DHT22;7126;48.458;7.930;2023-05-14T14:08:04;22.60;99.90
14099;DHT22;7126;48.458;7.930;2023-05-14T14:10:30;22.60;99.90
14099;DHT22;7126;48.458;7.930;2023-05-14T14:12:56;22.90;99.90
14099;DHT22;7126;48.458;7.930;2023-05-14T14:15:21;23.20;99.90
14099;DHT22;7126;48.458;7.930;2023-05-14T14:17:47;23.50;99.90
14099;DHT22;7126;48.458;7.930;2023-05-14T14:20:13;23.80;99.90
14099;DHT22;7126;48.458;7.930;2023-05-14T14:22:39;24.00;99.90
14099;DHT22;7126;48.458;7.930;2023-05-14T14:25:05;24.20;99.90
14099;DHT22;7126;48.458;7.930;2023-05-14T14:27:32;24.20;99.90
14099;DHT22;7126;48.458;7.930;2023-05-14T14:30:06;24.40;99.90
14099;DHT22;7126;48.458;7.930;2023-05-14T14:32:32;24.50;99.90
14099;DHT22;7126;48.458;7.930;2023-05-14T14:34:57;24.80;99.90
14099;DHT22;7126;48.458;7.930;2023-05-14T14:37:23;24.90;99.90
14099;DHT22;7126;48.458;7.930;2023-05-14T14:39:48;25.00;99.90
14099;DHT22;7126;48.458;7.930;2023-05-14T14:42:14;25.20;99.90
14099;DHT22;7126;48.458;7.930;2023-05-14T14:44:39;25.20;99.90
14099;DHT22;7126;48.458;7.930;2023-05-14T14:47:05;25.20;99.90
14099;DHT22;7126;48.458;7.930;2023-05-14T14:49:31;25.20;99.90
14099;DHT22;7126;48.458;7.930;2023-05-14T14:51:57;25.20;99.90
14099;DHT22;7126;48.458;7.930;2023-05-14T14:54:22;25.20;99.90
14099;DHT22;7126;48.458;7.930;2023-05-14T14:56:48;25.00;99.90
14099;DHT22;7126;48.458;7.930;2023-05-14T14:59:16;24.90;99.90
14099;DHT22;7126;48.458;7.930;2023-05-14T15:01:42;24.80;99.90
14099;DHT22;7126;48.458;7.930;2023-05-14T15:04:08;24.70;99.90
14099;DHT22;7126;48.458;7.930;2023-05-14T15:06:33;24.70;99.90
14099;DHT22;7126;48.458;7.930;2023-05-14T15:08:59;24.70;99.90
14099;DHT22;7126;48.458;7.930;2023-05-14T15:11:25;24.70;99.10
14099;DHT22;7126;48.458;7.930;2023-05-14T15:13:50;24.60;99.90
14099;DHT22;7126;48.458;7.930;2023-05-14T15:16:16;24.50;99.90
14099;DHT22;7126;48.458;7.930;2023-05-14T15:18:42;24.60;99.00
14099;DHT22;7126;48.458;7.930;2023-05-14T15:21:07;24.60;99.90
14099;DHT22;7126;48.458;7.930;2023-05-14T15:23:33;24.70;99.20
14099;DHT22;7126;48.458;7.930;2023-05-14T15:25:58;24.70;98.70
14099;DHT22;7126;48.458;7.930;2023-05-14T15:28:24;24.60;98.90
14099;DHT22;7126;48.458;7.930;2023-05-14T15:30:49;24.60;99.80
14099;DHT22;7126;48.458;7.930;2023-05-14T15:33:15;24.50;99.70
14099;DHT22;7126;48.458;7.930;2023-05-14T15:35:43;24.50;99.80
14099;DHT22;7126;48.458;7.930;2023-05-14T15:38:09;24.40;99.40
14099;DHT22;7126;48.458;7.930;2023-05-14T15:40:35;24.30;99.30
14099;DHT22;7126;48.458;7.930;2023-05-14T15:43:00;24.30;99.40
14099;DHT22;7126;48.458;7.930;2023-05-14T15:45:26;24.20;99.50
14099;DHT22;7126;48.458;7.930;2023-05-14T15:47:52;24.10;98.50
14099;DHT22;7126;48.458;7.930;2023-05-14T15:50:18;23.80;98.50
14099;DHT22;7126;48.458;7.930;2023-05-14T15:52:44;23.60;99.30
14099;DHT22;7126;48.458;7.930;2023-05-14T15:55:09;23.50;99.60